Time;durP1;ratioP1;P1;durP2;ratioP2;P2;SDS_P1;SDS_P2;PMS_P1;PMS_P2;Temp;Humidity;BMP_temperature;BMP_pressure;BME280_temperature;BME280_humidity;BME280_pressure;Samples;Min_cycle;Max_cycle;Signal;HPM_P1;HPM_P2
2022/07/29 00:02:01;;;;;;;;;5.00;5.00;;;;;21.05;43.56;100987.13;5076410;27;45838;-83
2022/07/29 00:04:26;;;;;;;;;8.75;8.25;;;;;20.91;43.13;100964.91;5078239;27;45343;-84
2022/07/29 00:06:51;;;;;;;;;8.25;8.25;;;;;20.95;43.47;100966.69;5096930;27;45435;-83
2022/07/29 00:09:17;;;;;;;;;8.75;7.25;;;;;20.87;43.74;100955.13;5096468;27;46181;-83
2022/07/29 00:11:42;;;;;;;;;8.00;7.50;;;;;20.79;43.98;100940.94;5078473;27;45560;-83
2022/07/29 00:14:09;;;;;;;;;6.50;6.50;;;;;21.00;43.86;100988.03;5078473;27;45452;-83
2022/07/29 00:16:34;;;;;;;;;8.50;7.50;;;;;20.83;44.28;100969.38;5096732;27;45304;-83
2022/07/29 00:19:00;;;;;;;;;8.50;8.25;;;;;20.66;44.40;100947.22;5096238;27;46523;-83
2022/07/29 00:21:25;;;;;;;;;7.75;7.50;;;;;20.57;44.69;100938.31;5096956;27;45562;-84
2022/07/29 00:23:51;;;;;;;;;11.25;9.00;;;;;20.58;44.54;100941.88;5096751;27;45330;-84
2022/07/29 00:26:16;;;;;;;;;9.00;8.00;;;;;20.63;44.79;100960.56;5077999;27;45292;-83
2022/07/29 00:28:41;;;;;;;;;10.50;9.00;;;;;20.62;45.04;100965.00;5077927;27;47014;-85
2022/07/29 00:31:07;;;;;;;;;9.00;9.00;;;;;20.47;45.37;100951.72;5096327;27;45403;-86
2022/07/29 00:33:33;;;;;;;;;8.50;8.00;;;;;20.41;45.19;100941.91;5096512;27;45236;-86
2022/07/29 00:35:58;;;;;;;;;8.50;8.00;;;;;20.32;45.18;100936.59;5078818;27;45717;-86
2022/07/29 00:38:23;;;;;;;;;8.50;8.00;;;;;20.36;45.64;100941.03;5096646;27;45590;-85
2022/07/29 00:40:49;;;;;;;;;8.00;8.00;;;;;20.26;45.47;100936.59;5096657;27;45431;-85
2022/07/29 00:43:17;;;;;;;;;8.00;8.00;;;;;20.49;45.74;100974.88;5097318;27;45598;-86
2022/07/29 00:45:45;;;;;;;;;9.25;7.75;;;;;20.34;45.45;100949.06;5096711;27;45418;-85
2022/07/29 00:48:11;;;;;;;;;7.50;7.00;;;;;20.47;45.61;100967.72;5095590;27;46313;-84
2022/07/29 00:50:36;;;;;;;;;8.00;8.00;;;;;20.32;45.44;100949.94;5096180;27;45208;-83
2022/07/29 00:53:03;;;;;;;;;8.25;7.25;;;;;20.24;45.97;100928.56;5096392;27;45321;-86
2022/07/29 00:55:29;;;;;;;;;7.50;7.00;;;;;20.33;45.76;100941.03;5077940;27;45358;-83
2022/07/29 00:57:55;;;;;;;;;6.75;6.50;;;;;20.19;45.30;100916.13;5077824;27;47330;-84
2022/07/29 01:00:24;;;;;;;;;7.50;7.50;;;;;20.32;45.00;100932.13;5096164;27;45588;-84
2022/07/29 01:02:50;;;;;;;;;8.25;8.25;;;;;20.42;45.05;100948.13;5096302;27;45515;-83
2022/07/29 01:05:20;;;;;;;;;7.25;6.50;;;;;20.41;45.41;100952.59;5096486;27;45281;-83
2022/07/29 01:07:48;;;;;;;;;7.50;7.25;;;;;20.48;45.16;100957.03;5095911;27;45397;-85
2022/07/29 01:10:15;;;;;;;;;7.50;7.50;;;;;20.39;44.94;100941.00;5095760;27;45915;-86
2022/07/29 01:12:44;;;;;;;;;7.00;7.00;;;;;20.45;45.54;100946.34;5095914;27;45561;-85
2022/07/29 01:15:09;;;;;;;;;7.75;7.75;;;;;20.49;45.67;100964.19;5095947;27;45639;-83
2022/07/29 01:17:44;;;;;;;;;5.00;5.00;;;;;20.31;46.00;100953.50;5095864;27;46249;-83
2022/07/29 01:20:22;;;;;;;;;7.25;7.25;;;;;20.34;45.98;100981.09;5076965;27;45431;-85
2022/07/29 01:23:24;;;;;;;;;8.00;7.75;;;;;20.25;46.48;100974.88;5077719;27;45489;-85
2022/07/29 01:26:18;;;;;;;;;7.75;7.75;;;;;20.16;46.63;100975.78;5095676;27;45515;-86
2022/07/29 01:29:06;;;;;;;;;7.50;7.50;;;;;20.04;46.84;100968.63;5095484;27;46484;-85
2022/07/29 01:31:41;;;;;;;;;11.75;9.75;;;;;20.10;46.30;100982.00;5077534;27;45944;-84
2022/07/29 01:34:10;;;;;;;;;7.00;7.00;;;;;20.08;46.54;100969.53;5095495;27;45628;-85
2022/07/29 01:36:43;;;;;;;;;7.50;7.00;;;;;20.09;46.70;100971.31;5077379;27;45395;-85
2022/07/29 01:39:12;;;;;;;;;8.00;7.25;;;;;19.98;46.49;100962.44;5077570;27;47320;-85
2022/07/29 01:41:46;;;;;;;;;7.00;7.00;;;;;19.94;46.96;100966.88;5077105;27;45827;-87
2022/07/29 01:44:18;;;;;;;;;9.00;9.00;;;;;19.81;46.85;100952.66;5077282;27;45465;-85
2022/07/29 01:46:51;;;;;;;;;7.50;7.50;;;;;19.94;47.70;100982.00;5095682;27;45433;-85
2022/07/29 01:49:22;;;;;;;;;8.00;8.00;;;;;19.80;47.06;100961.56;5094767;27;45546;-87
2022/07/29 01:51:51;;;;;;;;;9.00;8.00;;;;;19.88;47.53;100982.00;5095607;27;45792;-85
2022/07/29 01:54:28;;;;;;;;;6.00;6.00;;;;;19.67;46.91;100953.53;5095642;27;45512;-86
2022/07/29 01:56:56;;;;;;;;;8.00;8.00;;;;;19.64;47.60;100948.19;5077351;27;45340;-86
2022/07/29 01:59:23;;;;;;;;;9.00;9.00;;;;;19.62;47.61;100945.53;5095117;27;46153;-83
2022/07/29 02:01:52;;;;;;;;;7.75;7.00;;;;;19.62;47.90;100955.31;5095272;27;46338;-85
2022/07/29 02:04:20;;;;;;;;;7.75;6.75;;;;;19.49;47.64;100941.94;5076789;27;45422;-85
2022/07/29 02:06:49;;;;;;;;;9.00;8.25;;;;;19.66;47.96;100976.66;5076875;27;45539;-86
2022/07/29 02:09:15;;;;;;;;;8.25;8.25;;;;;19.40;47.82;100949.91;5076625;27;47545;-84
2022/07/29 02:11:50;;;;;;;;;8.25;8.00;;;;;19.21;47.95;100925.03;5095139;27;46001;-83
2022/07/29 02:14:18;;;;;;;;;6.00;6.00;;;;;19.48;48.32;100974.81;5095357;27;45495;-85
2022/07/29 02:16:45;;;;;;;;;8.25;8.25;;;;;19.38;48.06;100951.69;5095107;27;45493;-85
2022/07/29 02:19:13;;;;;;;;;7.00;6.75;;;;;19.31;48.18;100947.25;5094632;27;45695;-85
2022/07/29 02:21:40;;;;;;;;;8.00;8.00;;;;;19.41;48.13;100966.78;5094975;27;45488;-85
2022/07/29 02:24:07;;;;;;;;;8.00;8.00;;;;;19.36;48.38;100966.81;5094897;27;45385;-86
2022/07/29 02:26:33;;;;;;;;;8.50;8.00;;;;;19.34;48.47;100972.09;5093906;27;45381;-86
2022/07/29 02:29:00;;;;;;;;;8.00;7.75;;;;;19.44;48.24;100985.47;5094595;27;45366;-86
2022/07/29 02:31:33;;;;;;;;;7.00;7.00;;;;;19.27;47.96;100950.78;5076618;27;45848;-85
2022/07/29 02:34:02;;;;;;;;;9.00;8.50;;;;;19.23;47.85;100947.22;5094814;27;45442;-85
2022/07/29 02:36:29;;;;;;;;;7.00;7.00;;;;;19.41;47.95;100981.03;5076244;27;45528;-86
2022/07/29 02:39:00;;;;;;;;;7.75;7.75;;;;;19.30;48.27;100959.66;5094512;27;46445;-85
2022/07/29 02:41:33;;;;;;;;;8.00;7.25;;;;;19.27;48.07;100953.44;5094907;27;46103;-86
2022/07/29 02:44:09;;;;;;;;;9.75;9.00;;;;;19.30;48.14;100956.09;5094561;27;45386;-84
2022/07/29 02:46:37;;;;;;;;;8.50;8.25;;;;;19.43;48.41;100989.91;5094603;27;45708;-84
2022/07/29 02:49:17;;;;;;;;;8.00;8.00;;;;;19.41;48.15;100996.09;5094011;27;46414;-83
2022/07/29 02:52:21;;;;;;;;;9.75;7.00;;;;;19.34;48.44;100993.44;5094453;27;45505;-83
2022/07/29 02:54:54;;;;;;;;;7.50;7.00;;;;;19.20;48.55;100976.50;5076085;27;45384;-87
2022/07/29 02:57:28;;;;;;;;;6.00;6.00;;;;;19.27;48.42;100996.09;5094457;27;45373;-85
2022/07/29 02:59:58;;;;;;;;;9.00;7.25;;;;;19.13;48.72;100963.19;5094229;27;46521;-86
2022/07/29 03:02:26;;;;;;;;;7.75;7.00;;;;;19.27;48.84;100988.97;5094176;27;45411;-82
2022/07/29 03:04:53;;;;;;;;;6.75;6.75;;;;;19.08;48.66;100956.06;5093898;27;45519;-83
2022/07/29 03:07:20;;;;;;;;;6.50;6.50;;;;;19.07;49.41;100969.38;5094317;27;45541;-85
2022/07/29 03:09:47;;;;;;;;;7.50;7.50;;;;;19.15;49.09;100990.72;5093944;27;45464;-86
2022/07/29 03:12:13;;;;;;;;;7.25;7.25;;;;;18.93;49.04;100958.69;5094253;27;45888;-83
2022/07/29 03:14:39;;;;;;;;;8.00;8.00;;;;;18.97;48.95;100964.91;5094197;27;45410;-85
2022/07/29 03:17:05;;;;;;;;;8.00;8.00;;;;;18.98;48.85;100969.34;5094776;27;45652;-87
2022/07/29 03:19:31;;;;;;;;;6.00;6.00;;;;;18.97;49.16;100978.22;5075834;27;47376;-86
2022/07/29 03:21:57;;;;;;;;;7.50;7.50;;;;;18.95;48.81;100979.97;5094690;27;45542;-86
2022/07/29 03:24:28;;;;;;;;;6.25;6.25;;;;;18.97;48.97;100988.88;5094626;27;45451;-87
2022/07/29 03:26:55;;;;;;;;;7.50;7.00;;;;;19.03;49.33;100996.91;5094498;27;45358;-86
2022/07/29 03:29:20;;;;;;;;;7.50;7.25;;;;;18.87;49.37;100963.09;5094143;27;45410;-87
2022/07/29 03:31:45;;;;;;;;;7.25;7.00;;;;;18.91;49.89;100973.75;5094217;27;45326;-84
2022/07/29 03:34:11;;;;;;;;;8.00;8.00;;;;;18.72;49.81;100953.28;5093879;27;45404;-85
2022/07/29 03:36:36;;;;;;;;;7.00;7.00;;;;;18.65;49.46;100951.41;5095071;27;45291;-85
2022/07/29 03:39:03;;;;;;;;;8.00;8.00;;;;;18.75;49.92;100974.56;5097709;27;46118;-86
2022/07/29 03:41:31;;;;;;;;;7.50;7.50;;;;;18.67;49.62;100957.63;5097697;27;46085;-85
2022/07/29 03:43:58;;;;;;;;;8.00;7.75;;;;;18.82;49.75;100979.06;5097922;27;45362;-85
2022/07/29 03:46:28;;;;;;;;;9.75;8.25;;;;;18.88;50.19;100997.72;5097441;27;45434;-86
2022/07/29 03:48:59;;;;;;;;;6.50;6.00;;;;;18.67;50.19;100970.94;5078744;27;46398;-87
2022/07/29 03:51:25;;;;;;;;;9.50;9.25;;;;;18.63;49.94;100966.50;5097676;27;45347;-87
2022/07/29 03:53:51;;;;;;;;;7.00;7.00;;;;;18.59;49.61;100973.56;5097620;27;45318;-85
2022/07/29 03:56:20;;;;;;;;;8.00;8.00;;;;;18.70;50.40;100992.28;5079174;27;45674;-86
2022/07/29 03:58:46;;;;;;;;;6.75;6.75;;;;;18.65;50.38;100992.22;5078879;27;48032;-85
2022/07/29 04:01:13;;;;;;;;;9.00;8.00;;;;;18.71;50.33;101010.03;5097205;27;45807;-86
2022/07/29 04:03:39;;;;;;;;;7.00;7.00;;;;;18.73;50.71;101016.28;5097086;27;45359;-86
2022/07/29 04:06:06;;;;;;;;;8.75;8.00;;;;;18.63;50.65;100993.13;5079024;27;45269;-86
2022/07/29 04:08:33;;;;;;;;;7.25;7.25;;;;;18.71;50.43;101000.28;5078873;27;47742;-86
2022/07/29 04:10:59;;;;;;;;;9.25;9.25;;;;;18.77;50.89;101010.97;5078698;27;45353;-85
2022/07/29 04:13:25;;;;;;;;;10.00;10.00;;;;;18.68;50.49;100999.34;5097359;27;45441;-87
2022/07/29 04:15:50;;;;;;;;;6.75;6.75;;;;;18.76;50.53;101010.97;5097090;27;45418;-86
2022/07/29 04:18:16;;;;;;;;;7.75;7.50;;;;;18.79;50.63;101013.66;5096485;27;45398;-85
2022/07/29 04:20:41;;;;;;;;;7.50;7.00;;;;;18.44;50.13;100949.53;5096833;27;45447;-84
2022/07/29 04:23:07;;;;;;;;;6.75;6.00;;;;;18.71;49.96;100994.06;5096995;27;45374;-83
2022/07/29 04:25:32;;;;;;;;;9.50;9.50;;;;;18.72;50.08;100990.53;5096651;27;45434;-83
2022/07/29 04:28:00;;;;;;;;;11.50;9.50;;;;;18.80;49.99;100995.00;5096620;27;45482;-83
2022/07/29 04:30:26;;;;;;;;;11.25;10.50;;;;;19.03;49.95;101019.09;5096742;27;45292;-86
2022/07/29 04:32:51;;;;;;;;;6.75;6.75;;;;;19.01;49.62;100999.56;5096357;27;45479;-83
2022/07/29 04:35:18;;;;;;;;;7.00;7.00;;;;;19.00;50.37;100992.44;5096720;27;45403;-83
2022/07/29 04:37:43;;;;;;;;;7.75;6.75;;;;;18.93;49.92;100972.00;5078009;27;48551;-84
2022/07/29 04:40:09;;;;;;;;;8.25;8.25;;;;;19.13;50.14;101009.38;5096656;27;45398;-86
2022/07/29 04:42:34;;;;;;;;;9.25;8.50;;;;;18.90;50.18;100963.97;5096633;27;45282;-86
2022/07/29 04:44:59;;;;;;;;;8.75;8.00;;;;;19.15;49.62;101014.69;5078532;27;45502;-86
2022/07/29 04:47:25;;;;;;;;;11.50;10.25;;;;;19.19;49.38;101011.16;5096055;27;45504;-83
2022/07/29 04:49:50;;;;;;;;;8.00;8.00;;;;;19.13;49.33;100993.38;5076629;27;45381;-84
2022/07/29 04:52:15;;;;;;;;;8.67;8.67;;;;;19.29;49.42;101012.97;5078251;27;45697;-84
2022/07/29 04:54:41;;;;;;;;;9.33;9.33;;;;;19.39;48.98;101021.88;5077523;27;47173;-83
2022/07/29 04:57:06;;;;;;;;;10.50;9.00;;;;;19.33;49.13;100996.09;5077464;27;48006;-83
2022/07/29 04:59:31;;;;;;;;;10.33;9.00;;;;;19.36;49.43;100987.22;5095596;27;49279;-86
2022/07/29 05:01:56;;;;;;;;;8.25;8.25;;;;;19.28;49.53;100965.88;5096033;27;45395;-85
2022/07/29 05:04:22;;;;;;;;;8.50;8.00;;;;;19.54;49.76;100997.91;5095779;27;45371;-83
2022/07/29 05:06:48;;;;;;;;;9.50;8.00;;;;;19.46;49.73;100986.38;5095779;27;46240;-84
2022/07/29 05:09:13;;;;;;;;;9.00;8.25;;;;;19.64;49.35;101006.88;5095892;27;45346;-84
2022/07/29 05:11:39;;;;;;;;;8.00;8.00;;;;;19.59;48.81;101009.47;5077771;27;45300;-83
2022/07/29 05:14:04;;;;;;;;;9.50;8.50;;;;;19.74;48.93;101019.31;5095773;27;45485;-84
2022/07/29 05:16:30;;;;;;;;;9.50;9.00;;;;;19.55;48.87;100986.38;5077166;27;47082;-83
2022/07/29 05:18:55;;;;;;;;;8.25;7.00;;;;;19.61;49.05;100981.09;5095578;27;45325;-83
2022/07/29 05:21:20;;;;;;;;;9.00;8.25;;;;;19.71;48.66;100995.34;5096011;27;45417;-83
2022/07/29 05:23:46;;;;;;;;;10.00;10.00;;;;;19.69;49.02;100978.41;5077472;27;45317;-86
2022/07/29 05:26:11;;;;;;;;;8.00;8.00;;;;;19.92;49.66;101014.00;5095866;27;45299;-83
2022/07/29 05:28:37;;;;;;;;;8.75;8.25;;;;;19.93;49.69;100998.91;5095797;27;45385;-85
2022/07/29 05:31:02;;;;;;;;;8.25;8.25;;;;;19.73;49.02;100961.53;5096437;27;45455;-86
2022/07/29 05:33:28;;;;;;;;;9.50;8.25;;;;;19.87;49.27;100970.44;5077607;27;45323;-86
2022/07/29 05:35:53;;;;;;;;;8.25;8.25;;;;;20.06;49.26;101008.69;5095909;27;45299;-86
2022/07/29 05:38:18;;;;;;;;;9.00;8.67;;;;;20.04;48.99;101005.09;5095995;27;45339;-86
2022/07/29 05:40:44;;;;;;;;;8.50;8.25;;;;;20.17;49.54;101020.25;5077641;27;45575;-86
2022/07/29 05:43:09;;;;;;;;;8.50;7.75;;;;;20.14;50.05;101014.00;5095957;27;45424;-86
2022/07/29 05:45:34;;;;;;;;;8.75;7.00;;;;;20.03;48.78;101001.56;5095870;27;46049;-86
2022/07/29 05:48:00;;;;;;;;;10.75;10.00;;;;;20.10;48.44;101016.69;5076940;27;45457;-85
2022/07/29 05:50:25;;;;;;;;;7.00;6.25;;;;;20.24;49.74;101043.34;5077591;27;45513;-86
2022/07/29 05:52:50;;;;;;;;;10.00;10.00;;;;;20.24;49.57;101039.81;5095292;27;45505;-85
2022/07/29 05:55:16;;;;;;;;;9.50;9.50;;;;;20.30;48.56;101050.50;5076930;27;48119;-85
2022/07/29 05:57:43;;;;;;;;;13.50;12.25;;;;;20.24;48.17;101042.47;5076924;27;45438;-86
2022/07/29 06:00:09;;;;;;;;;12.25;12.25;;;;;20.29;48.55;101046.03;5095553;27;45390;-86
2022/07/29 06:02:34;;;;;;;;;8.00;7.50;;;;;20.20;48.90;101014.03;5095209;27;45484;-87
2022/07/29 06:05:00;;;;;;;;;10.00;10.00;;;;;20.23;49.60;101020.22;5095111;27;52708;-85
2022/07/29 06:07:25;;;;;;;;;10.50;9.00;;;;;20.32;50.47;101025.56;5076732;27;45326;-83
2022/07/29 06:09:50;;;;;;;;;9.50;9.50;;;;;20.33;50.38;101034.47;5094941;27;45462;-85
2022/07/29 06:12:16;;;;;;;;;8.33;8.33;;;;;20.47;48.96;101048.72;5094873;27;45488;-83
2022/07/29 06:14:41;;;;;;;;;9.50;9.50;;;;;20.66;48.76;101073.63;5076310;27;47538;-83
2022/07/29 06:17:06;;;;;;;;;11.00;10.00;;;;;20.66;48.82;101054.94;5076317;27;45376;-83
2022/07/29 06:19:34;;;;;;;;;11.25;9.75;;;;;20.64;48.35;101038.03;5094527;27;45483;-85
2022/07/29 06:22:00;;;;;;;;;11.75;11.00;;;;;20.78;48.13;101048.66;5094863;27;45395;-83
2022/07/29 06:24:25;;;;;;;;;10.00;9.00;;;;;20.83;48.26;101044.19;5094809;27;45446;-85
2022/07/29 06:26:50;;;;;;;;;10.00;9.75;;;;;20.75;48.52;101025.53;5076644;27;45495;-85
2022/07/29 06:29:16;;;;;;;;;8.25;8.25;;;;;20.91;48.66;101036.16;5094727;27;45487;-85
2022/07/29 06:31:42;;;;;;;;;9.25;9.25;;;;;21.02;47.85;101051.25;5094592;27;45473;-84
2022/07/29 06:34:07;;;;;;;;;9.75;9.75;;;;;21.16;48.53;101061.91;5075790;27;46261;-85
2022/07/29 06:36:37;;;;;;;;;10.00;10.00;;;;;21.17;48.45;101050.31;5094731;27;45318;-85
2022/07/29 06:39:06;;;;;;;;;10.75;10.25;;;;;21.15;48.30;101040.53;5076449;27;45340;-86
2022/07/29 06:41:32;;;;;;;;;11.75;10.25;;;;;21.33;48.41;101062.78;5094815;27;45468;-83
2022/07/29 06:43:58;;;;;;;;;9.75;9.50;;;;;21.39;48.21;101051.16;5094685;27;45511;-84
2022/07/29 06:46:24;;;;;;;;;9.75;9.75;;;;;21.53;47.29;101075.16;5094282;27;45381;-84
2022/07/29 06:48:50;;;;;;;;;9.25;9.25;;;;;21.59;47.66;101076.00;5094012;27;45525;-85
2022/07/29 06:51:16;;;;;;;;;10.25;10.00;;;;;21.58;47.59;101070.69;5094589;27;45504;-85
2022/07/29 06:53:41;;;;;;;;;10.00;9.00;;;;;21.43;47.02;101041.31;5094250;27;45545;-84
2022/07/29 06:56:12;;;;;;;;;8.00;7.50;;;;;21.57;47.73;101067.09;5094248;27;45366;-86
2022/07/29 06:58:38;;;;;;;;;12.75;10.25;;;;;21.68;46.76;101084.91;5076112;27;45434;-83
2022/07/29 07:01:05;;;;;;;;;10.00;8.75;;;;;21.55;46.94;101068.00;5094384;27;45374;-84
2022/07/29 07:03:31;;;;;;;;;8.00;8.00;;;;;21.55;47.12;101082.28;5093991;27;45393;-84
2022/07/29 07:05:57;;;;;;;;;9.00;9.00;;;;;21.37;47.44;101059.16;5075945;27;46201;-84
2022/07/29 07:08:23;;;;;;;;;9.00;9.00;;;;;21.43;49.00;101071.66;5094307;27;45465;-85
2022/07/29 07:10:52;;;;;;;;;7.00;7.00;;;;;21.33;48.32;101072.59;5093783;27;45287;-85
2022/07/29 07:13:18;;;;;;;;;8.00;8.00;;;;;21.18;47.76;101051.19;5075384;27;47107;-83
2022/07/29 07:15:45;;;;;;;;;9.25;9.00;;;;;21.24;49.27;101075.25;5075756;27;45897;-86
2022/07/29 07:18:10;;;;;;;;;9.75;9.00;;;;;21.18;48.90;101070.84;5093979;27;45231;-86
2022/07/29 07:20:36;;;;;;;;;11.00;10.00;;;;;21.30;49.28;101102.88;5075662;27;45335;-86
2022/07/29 07:23:02;;;;;;;;;9.25;8.50;;;;;21.27;48.81;101088.59;5094028;27;46205;-84
2022/07/29 07:25:28;;;;;;;;;7.00;7.00;;;;;21.12;48.94;101062.81;5093695;27;45537;-84
2022/07/29 07:27:53;;;;;;;;;9.25;8.50;;;;;21.22;48.99;101077.03;5093968;27;45407;-85
2022/07/29 07:30:18;;;;;;;;;12.00;10.75;;;;;21.16;48.39;101061.03;5093906;27;45309;-83
2022/07/29 07:32:44;;;;;;;;;14.50;12.00;;;;;21.42;48.63;101096.59;5074808;27;46828;-84
2022/07/29 07:35:10;;;;;;;;;12.25;10.75;;;;;21.32;49.29;101065.44;5093985;27;45619;-85
2022/07/29 07:37:35;;;;;;;;;9.50;8.50;;;;;21.60;48.58;101104.53;5075563;27;45516;-85
2022/07/29 07:40:02;;;;;;;;;9.50;9.50;;;;;21.66;48.48;101092.91;5093842;27;45531;-85
2022/07/29 07:42:27;;;;;;;;;10.50;9.00;;;;;21.84;47.63;101105.31;5094062;27;45350;-85
2022/07/29 07:44:53;;;;;;;;;9.25;9.00;;;;;21.87;46.91;101097.25;5093705;27;45449;-86
2022/07/29 07:47:23;;;;;;;;;8.00;8.00;;;;;22.04;46.51;101114.09;5093408;27;45588;-86
2022/07/29 07:49:49;;;;;;;;;7.75;6.00;;;;;22.05;47.28;101097.13;5075448;27;45416;-84
2022/07/29 07:52:20;;;;;;;;;9.00;9.00;;;;;22.18;47.61;101106.00;5075401;27;48353;-83
2022/07/29 07:54:45;;;;;;;;;8.00;8.00;;;;;22.12;46.77;101084.66;5075500;27;45355;-85
2022/07/29 07:57:11;;;;;;;;;10.25;8.75;;;;;22.17;46.30;101089.94;5093987;27;45209;-83
2022/07/29 07:59:37;;;;;;;;;6.75;6.00;;;;;22.29;46.09;101111.28;5075167;27;45510;-86
2022/07/29 08:02:03;;;;;;;;;8.75;8.50;;;;;22.27;46.00;101116.66;5093900;27;46364;-85
2022/07/29 08:04:28;;;;;;;;;9.75;9.25;;;;;22.24;46.57;101094.34;5093216;27;45402;-85
2022/07/29 08:06:54;;;;;;;;;10.00;9.00;;;;;22.22;46.81;101089.03;5075454;27;45530;-86
2022/07/29 08:09:21;;;;;;;;;7.75;7.25;;;;;22.27;47.02;101094.34;5074920;27;45566;-86
2022/07/29 08:11:46;;;;;;;;;7.00;7.00;;;;;22.42;46.09;101109.41;5093578;27;46279;-83
2022/07/29 08:14:11;;;;;;;;;6.50;6.50;;;;;22.44;45.07;101100.44;5093771;27;45422;-86
2022/07/29 08:16:37;;;;;;;;;5.50;5.50;;;;;22.28;44.85;101059.50;5093690;27;45343;-86
2022/07/29 08:19:02;;;;;;;;;7.00;7.00;;;;;22.57;45.21;101104.78;5093305;27;45294;-86
2022/07/29 08:21:28;;;;;;;;;8.50;8.50;;;;;22.74;45.23;101119.81;5093422;27;46166;-85
2022/07/29 08:24:42;;;;;;;;;8.00;8.00;;;;;22.69;46.01;101101.09;5076356;27;45330;-85
2022/07/29 08:26:42;;;;;;;;;6.50;6.00;;;;;22.77;44.72;101098.38;5096808;27;45397;-86
2022/07/29 08:29:09;;;;;;;;;8.00;7.50;;;;;23.01;43.92;101119.59;5097124;27;45360;-85
2022/07/29 08:31:35;;;;;;;;;7.00;6.75;;;;;23.00;43.78;101090.97;5078313;27;47390;-86
2022/07/29 08:34:00;;;;;;;;;9.50;9.50;;;;;23.12;43.31;101089.97;5096892;27;45496;-86
2022/07/29 08:36:26;;;;;;;;;8.00;6.50;;;;;23.31;43.32;101112.09;5096849;27;45541;-86
2022/07/29 08:38:52;;;;;;;;;7.00;7.00;;;;;23.41;43.59;101103.03;5096936;27;45452;-86
2022/07/29 08:41:19;;;;;;;;;6.00;5.25;;;;;23.26;43.06;101057.63;5096863;27;45450;-86
2022/07/29 08:43:45;;;;;;;;;8.00;7.25;;;;;23.59;42.98;101102.78;5096754;27;45781;-87
2022/07/29 08:46:11;;;;;;;;;6.00;6.00;;;;;23.77;42.68;101115.09;5096478;27;45327;-86
2022/07/29 08:48:38;;;;;;;;;6.00;6.00;;;;;23.68;42.50;101067.81;5096734;27;45448;-86
2022/07/29 08:51:06;;;;;;;;;7.00;6.00;;;;;23.90;43.09;101089.88;5096113;27;45477;-85
2022/07/29 08:53:33;;;;;;;;;6.00;6.00;;;;;24.04;42.84;101086.97;5078001;27;45395;-84
2022/07/29 08:55:59;;;;;;;;;6.75;6.75;;;;;24.25;42.59;101099.19;5096659;27;45548;-86
2022/07/29 08:58:26;;;;;;;;;6.25;6.25;;;;;24.23;42.36;101081.28;5096366;27;45537;-86
2022/07/29 09:00:54;;;;;;;;;5.75;5.75;;;;;24.28;41.37;101076.72;5096377;27;46434;-86
2022/07/29 09:03:22;;;;;;;;;6.00;6.00;;;;;24.33;41.81;101088.28;5096309;27;45445;-86
2022/07/29 09:05:48;;;;;;;;;7.50;7.00;;;;;24.29;40.98;101067.78;5095814;27;45439;-85
2022/07/29 09:08:15;;;;;;;;;8.00;7.25;;;;;24.27;40.12;101066.91;5096145;27;45378;-86
2022/07/29 09:10:40;;;;;;;;;5.25;5.25;;;;;24.42;40.78;101080.09;5095902;27;45488;-86
2022/07/29 09:13:06;;;;;;;;;5.75;5.75;;;;;24.45;40.62;101085.44;5096131;27;45302;-86
2022/07/29 09:15:31;;;;;;;;;7.50;7.50;;;;;24.49;40.31;101088.97;5096278;27;45499;-85
2022/07/29 09:17:58;;;;;;;;;6.75;6.25;;;;;24.50;40.88;101094.31;5096279;27;45349;-85
2022/07/29 09:20:25;;;;;;;;;8.00;6.00;;;;;24.49;41.61;101095.22;5077327;27;48507;-86
2022/07/29 09:22:53;;;;;;;;;7.50;7.00;;;;;24.31;40.76;101072.19;5077480;27;46115;-85
2022/07/29 09:25:39;;;;;;;;;5.00;5.00;;;;;24.36;41.23;101102.59;5077767;27;45410;-86
2022/07/29 09:28:10;;;;;;;;;5.00;5.00;;;;;24.16;40.83;101083.19;5095892;27;45470;-86
2022/07/29 09:30:50;;;;;;;;;6.00;5.00;;;;;24.05;40.45;101074.44;5095793;27;46346;-86
2022/07/29 09:33:15;;;;;;;;;7.25;6.00;;;;;24.11;40.74;101094.00;5095692;27;45552;-86
2022/07/29 09:35:40;;;;;;;;;5.50;5.00;;;;;23.98;40.75;101076.31;5095004;27;45370;-86
2022/07/29 09:38:13;;;;;;;;;5.00;5.00;;;;;23.93;41.05;101070.13;5096437;27;45547;-86
2022/07/29 09:40:38;;;;;;;;;5.00;5.00;;;;;23.98;41.05;101084.38;5095325;27;45498;-83
2022/07/29 09:43:12;;;;;;;;;7.75;7.00;;;;;24.09;40.74;101106.59;5076851;27;46358;-83
2022/07/29 09:45:38;;;;;;;;;6.50;5.50;;;;;24.14;40.55;101099.34;5095457;27;45367;-84
2022/07/29 09:48:14;;;;;;;;;5.00;5.00;;;;;24.05;40.06;101069.94;5094939;27;45570;-84
2022/07/29 09:50:41;;;;;;;;;4.00;4.00;;;;;24.17;40.40;101085.84;5094556;27;46508;-83
2022/07/29 09:53:09;;;;;;;;;6.00;6.00;;;;;24.18;40.27;101078.69;5095103;27;45513;-84
2022/07/29 09:55:47;;;;;;;;;6.00;6.00;;;;;24.28;40.30;101083.00;5095219;27;45429;-83
2022/07/29 09:58:20;;;;;;;;;5.00;5.00;;;;;24.31;39.84;101085.63;5076667;27;45641;-83
2022/07/29 10:00:47;;;;;;;;;4.50;4.50;;;;;24.45;39.99;101088.13;5095008;27;46230;-83
2022/07/29 10:03:14;;;;;;;;;4.25;4.25;;;;;24.53;39.31;101086.22;5094993;27;45827;-84
2022/07/29 10:05:40;;;;;;;;;4.00;4.00;;;;;24.53;38.73;101070.09;5094532;27;45289;-83
2022/07/29 10:08:07;;;;;;;;;4.00;4.00;;;;;24.59;39.10;101066.41;5095078;27;45714;-84
2022/07/29 10:10:35;;;;;;;;;4.75;4.75;;;;;24.78;38.42;101088.44;5076183;27;48262;-83
2022/07/29 10:13:12;;;;;;;;;3.25;3.25;;;;;24.92;38.01;101094.44;5094686;27;46027;-83
2022/07/29 10:15:46;;;;;;;;;4.00;4.00;;;;;24.68;38.15;101042.03;5095024;27;45512;-83
2022/07/29 10:18:13;;;;;;;;;4.50;4.50;;;;;24.87;38.30;101056.88;5094972;27;45344;-84
2022/07/29 10:20:39;;;;;;;;;4.25;4.25;;;;;25.19;38.61;101087.69;5076038;27;46964;-83
2022/07/29 10:23:05;;;;;;;;;6.00;4.00;;;;;25.21;37.66;101077.75;5094835;27;45990;-85
2022/07/29 10:25:31;;;;;;;;;6.50;6.00;;;;;25.18;37.54;101070.66;5076549;27;45526;-86
2022/07/29 10:27:57;;;;;;;;;3.50;3.50;;;;;25.40;37.87;101094.41;5094777;27;45464;-84
2022/07/29 10:30:24;;;;;;;;;4.25;4.00;;;;;25.34;37.24;101083.78;5094453;27;46205;-83
2022/07/29 10:33:25;;;;;;;;;5.25;4.75;;;;;25.43;37.21;101086.28;5094833;27;46023;-83
2022/07/29 10:36:06;;;;;;;;;5.50;5.50;;;;;25.58;37.41;101099.41;5091148;27;46226;-85
2022/07/29 10:38:34;;;;;;;;;4.25;4.25;;;;;25.64;37.68;101093.88;5094769;27;45440;-84
2022/07/29 10:41:27;;;;;;;;;5.00;4.50;;;;;25.70;37.18;101103.63;5094885;27;45388;-85
2022/07/29 10:44:17;;;;;;;;;4.00;4.00;;;;;25.69;36.87;101074.94;5094652;27;45508;-84
2022/07/29 10:46:42;;;;;;;;;5.00;5.00;;;;;25.76;36.43;101078.41;5074898;27;45318;-85
2022/07/29 10:49:10;;;;;;;;;5.00;5.00;;;;;25.79;36.70;101078.34;5094354;27;45587;-86
2022/07/29 10:51:57;;;;;;;;;4.50;4.00;;;;;25.95;36.95;101104.88;5094264;27;46393;-84
2022/07/29 10:54:37;;;;;;;;;6.75;6.75;;;;;26.01;36.20;101101.19;5094229;27;45370;-83
2022/07/29 10:57:14;;;;;;;;;4.50;4.25;;;;;26.07;36.23;101105.53;5094456;27;45427;-85
2022/07/29 10:59:42;;;;;;;;;5.00;5.00;;;;;26.11;36.24;101099.16;5094242;27;45655;-84
2022/07/29 11:02:32;;;;;;;;;5.00;4.75;;;;;26.17;35.96;101101.69;5094195;27;45569;-86
2022/07/29 11:04:57;;;;;;;;;6.00;6.00;;;;;26.25;35.90;101099.66;5093859;27;45313;-86
2022/07/29 11:07:22;;;;;;;;;5.00;5.00;;;;;26.26;36.41;101085.31;5094627;27;45356;-86
2022/07/29 11:10:11;;;;;;;;;4.50;4.25;;;;;26.48;35.90;101107.22;5094559;27;45463;-86
2022/07/29 11:12:36;;;;;;;;;4.25;4.25;;;;;26.52;35.44;101099.97;5087174;27;46288;-85
2022/07/29 11:15:04;;;;;;;;;4.00;4.00;;;;;26.40;35.45;101066.06;5094174;27;45358;-86
2022/07/29 11:17:53;;;;;;;;;7.25;6.00;;;;;26.55;35.38;101078.28;5094613;27;45601;-86
2022/07/29 11:20:47;;;;;;;;;5.00;5.00;;;;;26.74;35.18;101098.47;5075421;27;45505;-84
2022/07/29 11:23:31;;;;;;;;;5.75;5.75;;;;;26.92;35.38;101083.59;5094086;27;45552;-86
2022/07/29 11:26:12;;;;;;;;;5.25;5.25;;;;;27.13;35.35;101098.31;5094197;27;45330;-86
2022/07/29 11:28:52;;;;;;;;;5.50;5.25;;;;;27.24;35.14;101094.41;5094351;27;45482;-85
2022/07/29 11:31:34;;;;;;;;;5.00;5.00;;;;;27.38;34.80;101101.19;5093753;27;45467;-86